Time;durP1;ratioP1;P1;durP2;ratioP2;P2;SDS_P1;SDS_P2;PMS_P1;PMS_P2;Temp;Humidity;BMP_temperature;BMP_pressure;BME280_temperature;BME280_humidity;BME280_pressure;Samples;Min_cycle;Max_cycle;Signal;HPM_P1;HPM_P2
2021/11/19 00:00:11;;;;;;;0.00;0.00;;;;;;;8.96;70.64;99796.97;4938751;29;20130;-76
2021/11/19 00:02:37;;;;;;;0.10;0.10;;;;;;;8.95;70.28;99793.47;4939413;29;20047;-82
2021/11/19 00:05:03;;;;;;;0.10;0.10;;;;;;;8.94;70.78;99801.72;4939110;29;20035;-87
2021/11/19 00:07:31;;;;;;;0.43;0.43;;;;;;;8.93;70.66;99797.44;4936221;29;20031;-77
2021/11/19 00:09:57;;;;;;;0.10;0.10;;;;;;;8.99;70.85;99801.00;4929783;29;20035;-79
2021/11/19 00:12:22;;;;;;;0.20;0.20;;;;;;;8.96;70.81;99794.31;4939384;29;20062;-79
2021/11/19 00:14:48;;;;;;;0.32;0.32;;;;;;;9.01;70.32;99793.53;4935810;29;20059;-77
2021/11/19 00:17:13;;;;;;;0.00;0.00;;;;;;;9.01;70.46;99790.88;4937579;29;20039;-76
2021/11/19 00:19:41;;;;;;;0.10;0.10;;;;;;;9.02;70.43;99790.66;4920113;29;20036;-78
2021/11/19 00:22:08;;;;;;;0.00;0.00;;;;;;;9.00;70.28;99790.06;4919853;29;20574;-78
2021/11/19 00:24:36;;;;;;;0.10;0.10;;;;;;;9.01;70.59;99788.19;4920008;29;20028;-77
2021/11/19 00:27:02;;;;;;;0.20;0.20;;;;;;;9.03;70.65;99799.44;4953590;29;20057;-78
2021/11/19 00:29:28;;;;;;;0.20;0.20;;;;;;;9.00;70.40;99787.41;4955453;29;20043;-78
2021/11/19 00:31:55;;;;;;;0.55;0.55;;;;;;;8.92;70.36;99769.97;4938700;29;20031;-80
2021/11/19 00:34:20;;;;;;;0.15;0.15;;;;;;;8.96;70.46;99781.75;4938819;29;20192;-75
2021/11/19 00:36:46;;;;;;;0.22;0.22;;;;;;;8.91;70.76;99776.34;4951794;29;20299;-78
2021/11/19 00:39:15;;;;;;;0.40;0.40;;;;;;;8.88;70.64;99776.84;4934295;29;20089;-77
2021/11/19 00:41:42;;;;;;;0.20;0.20;;;;;;;8.81;70.71;99771.69;4938419;29;20035;-82
2021/11/19 00:44:11;;;;;;;1.45;1.17;;;;;;;8.83;70.97;99783.97;4938650;29;20034;-80
2021/11/19 00:46:38;;;;;;;1.08;0.98;;;;;;;8.86;70.93;99786.97;4938821;29;20043;-77
2021/11/19 00:49:05;;;;;;;0.35;0.35;;;;;;;8.87;70.91;99788.56;4938524;29;20031;-80
2021/11/19 00:51:36;;;;;;;0.32;0.32;;;;;;;8.84;70.82;99782.91;4935486;29;20478;-80
2021/11/19 00:54:05;;;;;;;1.30;1.05;;;;;;;8.87;70.98;99782.44;4919382;29;20036;-83
2021/11/19 00:56:33;;;;;;;0.20;0.20;;;;;;;8.88;71.10;99792.06;4919429;29;20059;-79
2021/11/19 00:58:59;;;;;;;0.00;0.00;;;;;;;8.84;71.07;99782.91;4919000;29;20036;-75
2021/11/19 01:01:28;;;;;;;0.47;0.47;;;;;;;8.85;71.26;99787.19;4936271;29;20111;-79
2021/11/19 01:03:54;;;;;;;0.00;0.00;;;;;;;8.85;71.21;99781.84;4936168;29;20402;-77
2021/11/19 01:06:20;;;;;;;0.40;0.40;;;;;;;8.84;70.93;99783.72;4931037;29;20053;-79
2021/11/19 01:08:46;;;;;;;0.00;0.00;;;;;;;8.86;71.00;99786.16;4924830;29;20383;-80
2021/11/19 01:11:16;;;;;;;0.00;0.00;;;;;;;8.84;70.71;99782.91;4919290;29;20035;-78
2021/11/19 01:13:44;;;;;;;0.00;0.00;;;;;;;8.75;70.93;99761.19;4930963;29;20044;-78
2021/11/19 01:16:15;;;;;;;0.95;0.95;;;;;;;8.80;70.72;99777.25;4918944;29;20064;-80
2021/11/19 01:18:46;;;;;;;0.00;0.00;;;;;;;8.76;70.92;99782.31;4919100;29;20399;-83
2021/11/19 01:21:44;;;;;;;0.17;0.17;;;;;;;8.76;71.00;99786.81;4929998;29;20028;-79
2021/11/19 01:24:10;;;;;;;0.70;0.70;;;;;;;8.68;71.33;99772.03;4912081;29;20039;-78
2021/11/19 01:26:38;;;;;;;0.10;0.10;;;;;;;8.75;71.14;99782.53;4919059;29;20047;-77
2021/11/19 01:29:07;;;;;;;0.00;0.00;;;;;;;8.75;70.88;99785.19;4918766;29;20051;-79
2021/11/19 01:31:37;;;;;;;0.00;0.00;;;;;;;8.65;71.10;99775.19;4919017;29;20028;-80
2021/11/19 01:34:02;;;;;;;0.50;0.50;;;;;;;8.71;71.20;99784.88;4922215;29;20114;-82
2021/11/19 01:36:28;;;;;;;0.17;0.10;;;;;;;8.69;71.10;99776.34;4937420;29;20134;-81
2021/11/19 01:38:54;;;;;;;2.15;1.95;;;;;;;8.66;71.14;99792.81;4937380;29;20494;-80
2021/11/19 01:41:36;;;;;;;0.95;0.95;;;;;;;8.67;71.31;99786.44;4937703;29;20035;-79
2021/11/19 01:44:21;;;;;;;0.00;0.00;;;;;;;8.59;71.14;99786.84;4937464;29;20090;-79
2021/11/19 01:46:50;;;;;;;0.28;0.28;;;;;;;8.58;70.95;99796.72;4937843;29;20035;-79
2021/11/19 01:49:16;;;;;;;0.32;0.32;;;;;;;8.56;71.18;99796.13;4936722;29;20049;-78
2021/11/19 01:52:14;;;;;;;0.57;0.50;;;;;;;8.55;71.79;99799.84;4918409;29;20035;-79
2021/11/19 01:54:51;;;;;;;0.10;0.10;;;;;;;8.56;71.36;99800.66;4942135;28;20035;-79
2021/11/19 01:57:32;;;;;;;0.27;0.27;;;;;;;8.49;71.30;99790.97;4937492;29;20422;-79
2021/11/19 02:00:06;;;;;;;0.25;0.25;;;;;;;8.48;71.15;99788.53;4937140;29;20678;-77
2021/11/19 02:02:37;;;;;;;0.52;0.52;;;;;;;8.48;71.20;99796.53;4936698;28;20399;-78
2021/11/19 02:05:22;;;;;;;0.55;0.52;;;;;;;8.46;71.17;99804.78;4917950;29;20545;-77
2021/11/19 02:07:50;;;;;;;0.00;0.00;;;;;;;8.28;71.27;99776.47;4952614;28;20031;-77
2021/11/19 02:10:33;;;;;;;0.10;0.10;;;;;;;8.40;71.06;99794.25;4936662;29;20035;-77
2021/11/19 02:13:12;;;;;;;0.43;0.43;;;;;;;8.10;71.09;99753.53;4936732;29;20561;-76
2021/11/19 02:15:49;;;;;;;;;;;;;;;8.40;71.03;99799.56;4953414;29;20449;-75
2021/11/19 02:18:22;;;;;;;0.40;0.40;;;;;;;8.31;71.33;99788.50;4954010;29;19910;-76
2021/11/19 02:20:52;;;;;;;1.10;1.02;;;;;;;8.24;70.95;99782.53;4954317;29;20040;-76
2021/11/19 02:23:26;;;;;;;18.63;0.73;;;;;;;8.32;71.17;99804.28;4946586;29;20023;-74
2021/11/19 02:26:14;;;;;;;0.10;0.10;;;;;;;8.30;70.91;99795.72;4934777;28;20031;-75
2021/11/19 02:28:42;;;;;;;0.17;0.17;;;;;;;8.23;70.74;99779.06;4949652;29;20038;-75
2021/11/19 02:31:21;;;;;;;0.95;0.95;;;;;;;8.27;70.36;99793.53;4917603;29;20086;-76
2021/11/19 02:33:51;;;;;;;1.35;1.35;;;;;;;8.21;70.82;99780.38;4917711;29;20126;-77
2021/11/19 02:36:22;;;;;;;0.17;0.17;;;;;;;8.26;70.69;99793.78;4918076;29;20038;-76
2021/11/19 02:38:51;;;;;;;0.00;0.00;;;;;;;8.31;70.41;99794.66;4943485;28;20051;-76
2021/11/19 02:41:19;;;;;;;0.00;0.00;;;;;;;8.23;70.35;99781.75;4936648;29;20150;-74
2021/11/19 02:43:52;;;;;;;0.40;0.40;;;;;;;8.23;70.22;99779.06;4936371;29;20035;-75
2021/11/19 02:46:23;;;;;;;1.27;0.80;;;;;;;8.30;70.55;99798.38;4953914;29;20131;-76
2021/11/19 02:48:49;;;;;;;0.00;0.00;;;;;;;8.28;70.58;99789.81;4933026;29;20038;-74
2021/11/19 02:51:16;;;;;;;0.40;0.40;;;;;;;8.33;70.00;99794.41;4916979;29;20395;-75
2021/11/19 02:53:45;;;;;;;0.43;0.43;;;;;;;8.29;70.05;99780.75;4917509;29;20031;-74
2021/11/19 02:56:10;;;;;;;0.40;0.40;;;;;;;8.33;69.82;99787.22;4932861;29;20023;-74
2021/11/19 02:58:39;;;;;;;0.20;0.20;;;;;;;8.32;70.08;99793.63;4917426;29;20046;-77
2021/11/19 03:01:11;;;;;;;0.15;0.15;;;;;;;8.26;69.81;99789.22;4917572;28;20482;-77
2021/11/19 03:03:39;;;;;;;0.20;0.20;;;;;;;8.30;69.79;99789.56;4926652;29;20035;-80
2021/11/19 03:06:05;;;;;;;0.57;0.57;;;;;;;8.32;69.68;99787.47;4936166;29;20121;-77
2021/11/19 03:08:31;;;;;;;0.20;0.20;;;;;;;8.27;69.46;99782.84;4936150;29;20074;-75
2021/11/19 03:10:57;;;;;;;0.10;0.10;;;;;;;8.25;69.16;99786.81;4952798;29;20035;-76
2021/11/19 03:13:27;;;;;;;0.00;0.00;;;;;;;8.29;69.01;99788.75;4951122;28;20542;-75
2021/11/19 03:15:53;;;;;;;0.10;0.10;;;;;;;8.32;68.89;99787.47;4916861;29;20028;-72
2021/11/19 03:18:22;;;;;;;0.00;0.00;;;;;;;8.32;69.13;99796.28;4934172;29;20110;-74
2021/11/19 03:20:51;;;;;;;0.05;0.05;;;;;;;8.29;69.25;99777.31;4940644;28;20110;-74
2021/11/19 03:23:17;;;;;;;0.00;0.00;;;;;;;8.31;68.50;99788.50;4952879;28;20039;-73
2021/11/19 03:25:43;;;;;;;0.00;0.00;;;;;;;8.27;68.53;99788.19;4953167;29;20402;-73
2021/11/19 03:28:13;;;;;;;0.00;0.00;;;;;;;8.34;68.01;99790.72;4952914;29;20035;-73
2021/11/19 03:30:41;;;;;;;0.55;0.55;;;;;;;8.32;68.41;99804.28;4934341;29;20055;-73
2021/11/19 03:33:08;;;;;;;0.00;0.00;;;;;;;8.31;68.49;99799.16;4916584;29;20119;-73
2021/11/19 03:35:34;;;;;;;0.20;0.20;;;;;;;8.16;68.48;99768.56;4933927;29;20040;-74
2021/11/19 03:38:01;;;;;;;0.00;0.00;;;;;;;8.25;68.73;99792.16;4933799;28;20055;-74
2021/11/19 03:40:35;;;;;;;0.00;0.00;;;;;;;8.27;68.67;99790.84;4925524;29;20502;-74
2021/11/19 03:43:03;;;;;;;0.00;0.00;;;;;;;8.27;68.70;99792.72;4933749;29;20084;-76
2021/11/19 03:45:49;;;;;;;0.17;0.17;;;;;;;8.25;68.60;99792.16;4933004;29;20660;-75
2021/11/19 03:48:16;;;;;;;0.00;0.00;;;;;;;8.28;69.44;99799.66;4951570;28;20039;-75
2021/11/19 03:50:46;;;;;;;0.00;0.00;;;;;;;8.26;69.11;99791.09;4952798;29;20023;-75
2021/11/19 03:53:14;;;;;;;0.00;0.00;;;;;;;8.25;68.88;99789.47;4935417;29;20391;-75
2021/11/19 03:55:46;;;;;;;1.43;1.10;;;;;;;8.29;69.13;99796.75;4935682;29;20035;-78
2021/11/19 03:58:22;;;;;;;0.00;0.00;;;;;;;8.29;68.48;99794.09;4952678;29;20114;-75
2021/11/19 04:00:54;;;;;;;0.40;0.40;;;;;;;8.29;68.49;99782.63;4952848;29;20057;-78
2021/11/19 04:03:21;;;;;;;0.10;0.10;;;;;;;8.25;68.66;99789.47;4935396;29;20105;-73
2021/11/19 04:05:47;;;;;;;0.00;0.00;;;;;;;8.30;68.03;99794.88;4935363;29;20077;-76
2021/11/19 04:08:14;;;;;;;0.00;0.00;;;;;;;8.33;68.34;99799.75;4931575;29;20123;-77
2021/11/19 04:10:40;;;;;;;0.47;0.47;;;;;;;8.27;67.79;99795.38;4932066;29;20086;-74
2021/11/19 04:13:07;;;;;;;0.00;0.00;;;;;;;8.28;68.46;99789.00;4931278;29;20036;-76
2021/11/19 04:15:39;;;;;;;0.00;0.00;;;;;;;8.30;67.86;99792.22;4935285;29;20107;-76
2021/11/19 04:18:05;;;;;;;0.10;0.10;;;;;;;8.30;68.06;99794.88;4935138;29;20031;-75
2021/11/19 04:20:31;;;;;;;0.15;0.15;;;;;;;8.27;68.27;99785.53;4949068;29;20039;-75
2021/11/19 04:22:57;;;;;;;0.13;0.13;;;;;;;8.28;68.55;99783.69;4950449;28;20078;-76
2021/11/19 04:25:24;;;;;;;0.08;0.08;;;;;;;8.30;68.29;99789.56;4931471;29;20098;-75
2021/11/19 04:27:51;;;;;;;0.00;0.00;;;;;;;8.29;68.17;99788.75;4932064;29;20028;-73
2021/11/19 04:30:21;;;;;;;0.10;0.10;;;;;;;8.31;67.78;99785.84;4917907;28;20382;-74
2021/11/19 04:32:47;;;;;;;0.00;0.00;;;;;;;8.29;68.30;99786.09;4935407;29;20035;-72
2021/11/19 04:35:13;;;;;;;0.00;0.00;;;;;;;8.26;68.42;99791.09;4951563;28;20031;-76
2021/11/19 04:37:39;;;;;;;0.10;0.10;;;;;;;8.18;68.74;99777.13;4924523;29;20052;-75
2021/11/19 04:40:07;;;;;;;0.00;0.00;;;;;;;8.26;68.70;99791.09;4940940;28;20122;-72
2021/11/19 04:42:33;;;;;;;0.22;0.22;;;;;;;8.10;69.13;99769.53;4936832;29;20028;-73
2021/11/19 04:44:59;;;;;;;0.25;0.25;;;;;;;8.09;69.45;99775.94;4936817;29;20553;-72
2021/11/19 04:47:24;;;;;;;0.05;0.05;;;;;;;8.14;69.77;99791.16;4936894;28;20133;-73
2021/11/19 04:49:49;;;;;;;0.10;0.10;;;;;;;8.03;70.23;99774.19;4936987;29;20028;-74
2021/11/19 04:52:16;;;;;;;0.68;0.68;;;;;;;8.08;70.47;99792.13;4936119;29;20075;-72
2021/11/19 04:54:43;;;;;;;0.00;0.00;;;;;;;7.98;71.16;99772.28;4919493;29;20031;-72
2021/11/19 04:57:09;;;;;;;0.00;0.00;;;;;;;8.05;70.68;99792.63;4936275;29;20032;-72
2021/11/19 04:59:35;;;;;;;0.15;0.15;;;;;;;8.04;70.92;99793.69;4951213;29;20031;-72
2021/11/19 05:02:07;;;;;;;0.17;0.17;;;;;;;8.04;71.39;99789.16;4936193;29;20047;-72
2021/11/19 05:04:33;;;;;;;0.00;0.00;;;;;;;7.97;70.99;99785.81;4936129;29;20027;-72
2021/11/19 05:06:58;;;;;;;0.10;0.10;;;;;;;8.03;70.72;99779.53;4936096;29;20046;-76
2021/11/19 05:09:26;;;;;;;0.10;0.10;;;;;;;8.03;70.84;99790.19;4950987;29;20023;-75
2021/11/19 05:12:17;;;;;;;0.35;0.35;;;;;;;8.04;70.52;99783.81;4936283;29;20027;-75
2021/11/19 05:14:44;;;;;;;0.47;0.47;;;;;;;8.03;70.61;99798.19;4934879;29;20086;-75
2021/11/19 05:17:11;;;;;;;0.00;0.00;;;;;;;8.00;71.41;99791.47;4950712;29;20028;-76
2021/11/19 05:19:37;;;;;;;0.90;0.43;;;;;;;8.01;71.03;99795.75;4935981;29;20051;-76
2021/11/19 05:22:04;;;;;;;0.20;0.20;;;;;;;7.94;71.21;99781.78;4936101;29;20098;-74
2021/11/19 05:24:29;;;;;;;0.13;0.13;;;;;;;7.92;70.98;99783.06;4918981;29;20429;-73
2021/11/19 05:26:54;;;;;;;1.13;1.05;;;;;;;7.88;71.39;99784.63;4918872;29;20070;-75
2021/11/19 05:29:21;;;;;;;0.20;0.20;;;;;;;7.95;71.54;99799.38;4918687;29;20087;-74
2021/11/19 05:31:48;;;;;;;0.00;0.00;;;;;;;7.94;71.52;99800.44;4935820;29;20035;-75
2021/11/19 05:34:14;;;;;;;0.10;0.10;;;;;;;7.93;71.25;99804.13;4918498;29;20136;-76
2021/11/19 05:36:41;;;;;;;0.10;0.10;;;;;;;7.93;71.28;99803.34;4918393;29;20102;-76
2021/11/19 05:39:07;;;;;;;0.20;0.20;;;;;;;7.96;71.59;99818.84;4935865;29;20036;-76
2021/11/19 05:41:33;;;;;;;0.10;0.10;;;;;;;7.90;70.94;99812.63;4918706;29;20130;-75
2021/11/19 05:44:00;;;;;;;0.00;0.00;;;;;;;7.92;71.39;99812.38;4918412;29;20031;-76
2021/11/19 05:46:28;;;;;;;0.10;0.10;;;;;;;7.96;71.30;99824.97;4934290;29;20036;-74
2021/11/19 05:48:56;;;;;;;0.52;0.38;;;;;;;7.97;70.83;99823.94;4935549;29;20027;-75
2021/11/19 05:51:23;;;;;;;0.17;0.17;;;;;;;7.99;71.21;99826.34;4949665;29;20038;-77
2021/11/19 05:53:50;;;;;;;0.28;0.28;;;;;;;8.02;71.24;99832.00;4934135;29;20554;-75
2021/11/19 05:56:17;;;;;;;0.00;0.00;;;;;;;7.97;70.99;99817.78;4918178;29;20454;-75
2021/11/19 05:58:42;;;;;;;0.00;0.00;;;;;;;7.93;70.97;99806.00;4935466;29;20028;-74
2021/11/19 06:01:11;;;;;;;0.00;0.00;;;;;;;7.95;70.74;99804.72;4935147;29;20036;-73
2021/11/19 06:03:39;;;;;;;0.00;0.00;;;;;;;8.06;70.61;99829.69;4949941;29;20035;-74
2021/11/19 06:06:09;;;;;;;0.00;0.00;;;;;;;8.08;70.66;99832.09;4935115;29;20032;-73
2021/11/19 06:08:36;;;;;;;0.13;0.13;;;;;;;8.05;70.97;99833.38;4935149;29;20394;-72
2021/11/19 06:11:06;;;;;;;0.90;0.90;;;;;;;8.09;70.01;99833.72;4934523;29;20036;-74
2021/11/19 06:13:39;;;;;;;0.13;0.13;;;;;;;8.10;70.20;99843.31;4934815;29;20023;-74
2021/11/19 06:16:17;;;;;;;0.40;0.40;;;;;;;8.08;70.44;99830.25;4949453;29;20383;-72
2021/11/19 06:18:46;;;;;;;0.05;0.05;;;;;;;8.02;69.68;99823.22;4935032;29;20549;-73
2021/11/19 06:21:17;;;;;;;0.17;0.17;;;;;;;8.15;69.72;99844.25;4934783;29;20044;-72
2021/11/19 06:23:46;;;;;;;0.00;0.00;;;;;;;8.08;69.64;99827.59;4934639;29;20422;-73
2021/11/19 06:26:14;;;;;;;0.00;0.00;;;;;;;8.15;69.77;99844.25;4949367;29;20034;-75
2021/11/19 06:28:45;;;;;;;0.25;0.25;;;;;;;8.19;69.74;99841.91;4949564;29;20428;-75
2021/11/19 06:31:14;;;;;;;0.00;0.00;;;;;;;8.22;69.78;99838.75;4934617;29;20028;-79
2021/11/19 06:33:39;;;;;;;0.30;0.30;;;;;;;8.20;69.73;99835.50;4917587;29;20028;-77
2021/11/19 06:36:06;;;;;;;0.03;0.03;;;;;;;8.23;69.27;99834.25;4933182;29;20047;-76
2021/11/19 06:38:32;;;;;;;0.15;0.10;;;;;;;8.25;69.15;99835.59;4917417;29;20115;-77
2021/11/19 06:40:57;;;;;;;0.00;0.00;;;;;;;8.27;69.84;99833.50;4934964;29;20130;-80
2021/11/19 06:43:23;;;;;;;0.20;0.20;;;;;;;8.30;69.52;99837.53;4917114;29;20598;-75
2021/11/19 06:45:49;;;;;;;0.00;0.00;;;;;;;8.23;69.53;99824.38;4917500;29;20035;-74
2021/11/19 06:48:15;;;;;;;0.20;0.20;;;;;;;8.17;69.45;99817.34;4934285;29;20114;-75
2021/11/19 06:50:43;;;;;;;0.00;0.00;;;;;;;8.31;69.69;99837.31;4934097;29;20102;-73
2021/11/19 06:53:09;;;;;;;0.00;0.00;;;;;;;8.30;69.90;99833.03;4948880;29;20028;-75
2021/11/19 06:55:35;;;;;;;0.00;0.00;;;;;;;8.35;69.57;99837.63;4917228;29;20405;-75
2021/11/19 06:58:02;;;;;;;0.00;0.00;;;;;;;8.34;70.04;99834.16;4933655;29;20043;-80
2021/11/19 07:00:34;;;;;;;0.32;0.32;;;;;;;8.36;69.49;99831.25;4934509;29;20079;-76
2021/11/19 07:02:59;;;;;;;0.35;0.35;;;;;;;8.27;69.69;99814.03;4917171;29;20027;-75
2021/11/19 07:05:26;;;;;;;0.00;0.00;;;;;;;8.32;69.76;99833.59;4933996;29;20580;-73
2021/11/19 07:07:52;;;;;;;0.00;0.00;;;;;;;8.35;69.88;99834.97;4917047;29;20032;-75
2021/11/19 07:10:20;;;;;;;0.00;0.00;;;;;;;8.27;69.95;99827.38;4948224;29;20056;-74
2021/11/19 07:12:46;;;;;;;0.10;0.10;;;;;;;8.36;69.67;99836.59;4948812;29;20043;-75
2021/11/19 07:15:16;;;;;;;0.32;0.32;;;;;;;8.37;69.60;99843.50;4933641;29;20084;-73
2021/11/19 07:17:43;;;;;;;0.25;0.25;;;;;;;8.39;70.04;99849.41;4948726;29;20317;-75
2021/11/19 07:20:11;;;;;;;0.00;0.00;;;;;;;8.38;69.94;99839.81;4948446;29;20024;-74
2021/11/19 07:22:38;;;;;;;0.00;0.00;;;;;;;8.41;69.67;99838.50;4916990;29;20043;-74
2021/11/19 07:25:05;;;;;;;0.08;0.08;;;;;;;8.40;69.51;99842.22;4916694;29;20039;-74
2021/11/19 07:27:30;;;;;;;0.00;0.00;;;;;;;8.40;69.55;99845.72;4948588;29;20032;-73
2021/11/19 07:29:56;;;;;;;0.00;0.00;;;;;;;8.33;69.30;99832.53;4948641;29;20198;-74
2021/11/19 07:32:21;;;;;;;0.13;0.10;;;;;;;8.42;69.24;99843.63;4948173;29;20539;-76
2021/11/19 07:34:47;;;;;;;0.28;0.28;;;;;;;8.38;68.97;99831.81;4933739;29;20114;-76
2021/11/19 07:37:13;;;;;;;0.00;0.00;;;;;;;8.36;68.74;99833.94;4916365;29;20052;-72
2021/11/19 07:39:39;;;;;;;0.00;0.00;;;;;;;8.49;68.52;99846.13;4933627;29;20478;-75
2021/11/19 07:42:04;;;;;;;0.00;0.00;;;;;;;8.51;68.49;99846.72;4916581;29;20039;-76
2021/11/19 07:44:30;;;;;;;0.00;0.00;;;;;;;8.53;68.04;99843.81;4948505;29;20499;-77
2021/11/19 07:46:56;;;;;;;0.30;0.30;;;;;;;8.47;68.56;99835.72;4932562;29;20039;-74
2021/11/19 07:49:21;;;;;;;0.15;0.15;;;;;;;8.56;68.46;99846.78;4933778;29;20028;-76
2021/11/19 07:51:49;;;;;;;0.10;0.10;;;;;;;8.57;68.26;99842.25;4932450;29;20035;-74
2021/11/19 07:54:15;;;;;;;0.30;0.30;;;;;;;8.47;68.45;99832.22;4933448;29;20031;-75
2021/11/19 07:56:41;;;;;;;0.00;0.00;;;;;;;8.44;68.15;99832.72;4948277;29;20040;-75
2021/11/19 07:59:18;;;;;;;0.00;0.00;;;;;;;8.56;68.08;99844.13;4947964;29;20027;-75
2021/11/19 08:01:44;;;;;;;0.00;0.00;;;;;;;8.61;67.78;99851.41;4916610;29;20114;-77
2021/11/19 08:04:10;;;;;;;0.00;0.00;;;;;;;8.47;67.38;99833.06;4933263;29;20032;-76
2021/11/19 08:06:36;;;;;;;2.05;0.50;;;;;;;8.52;68.19;99835.00;4933863;29;20028;-76
2021/11/19 08:09:04;;;;;;;0.10;0.10;;;;;;;8.53;67.87;99839.25;4917440;29;20028;-75
2021/11/19 08:11:29;;;;;;;0.60;0.43;;;;;;;8.54;67.88;99840.88;4937333;29;20530;-75
2021/11/19 08:13:56;;;;;;;0.40;0.40;;;;;;;8.64;68.16;99849.06;4920200;29;20024;-76
2021/11/19 08:16:21;;;;;;;0.10;0.10;;;;;;;8.67;67.99;99846.94;4951699;29;20122;-75
2021/11/19 08:19:01;;;;;;;0.00;0.00;;;;;;;8.69;68.31;99850.19;4920072;29;20042;-76
2021/11/19 08:21:27;;;;;;;0.00;0.00;;;;;;;8.69;67.91;99856.34;4951660;29;20131;-75
2021/11/19 08:24:00;;;;;;;0.10;0.10;;;;;;;8.70;67.21;99847.25;4919975;29;20474;-75
2021/11/19 08:26:38;;;;;;;0.28;0.08;;;;;;;8.75;67.07;99850.03;4935659;29;20031;-75
2021/11/19 08:29:10;;;;;;;0.00;0.00;;;;;;;8.69;66.59;99831.50;4951799;29;20032;-75
2021/11/19 08:31:35;;;;;;;0.00;0.00;;;;;;;8.79;66.36;99847.69;4951554;29;20094;-75
2021/11/19 08:34:01;;;;;;;0.52;0.52;;;;;;;8.85;65.95;99856.53;4935681;29;20442;-75
2021/11/19 08:36:29;;;;;;;0.00;0.00;;;;;;;8.86;65.40;99844.81;4936578;29;20035;-75
2021/11/19 08:38:56;;;;;;;0.00;0.00;;;;;;;8.90;65.10;99852.09;4917744;29;20040;-75
2021/11/19 08:41:21;;;;;;;0.13;0.13;;;;;;;8.86;64.58;99834.16;4916313;29;20028;-74
2021/11/19 08:43:49;;;;;;;0.45;0.45;;;;;;;8.93;64.26;99840.94;4932568;29;20048;-79
2021/11/19 08:46:21;;;;;;;0.40;0.40;;;;;;;8.94;63.64;99841.75;4920839;29;20036;-73
2021/11/19 08:48:49;;;;;;;0.10;0.10;;;;;;;8.93;63.63;99835.59;4951453;29;20034;-73
2021/11/19 08:51:19;;;;;;;0.10;0.10;;;;;;;8.93;63.15;99821.47;4922846;29;20068;-72
2021/11/19 08:53:47;;;;;;;0.13;0.13;;;;;;;9.06;63.01;99839.78;4928945;29;20039;-72
2021/11/19 08:56:13;;;;;;;0.30;0.30;;;;;;;9.06;62.42;99837.13;4936668;29;20032;-83
2021/11/19 08:58:41;;;;;;;0.10;0.10;;;;;;;9.10;62.72;99840.88;4935532;29;20028;-83
2021/11/19 09:01:08;;;;;;;0.03;0.03;;;;;;;9.16;62.01;99838.31;4951145;29;20538;-83
2021/11/19 09:03:34;;;;;;;0.00;0.00;;;;;;;9.12;60.96;99825.44;4935476;29;20043;-82
2021/11/19 09:06:01;;;;;;;0.30;0.30;;;;;;;9.13;60.80;99815.59;4916382;29;20471;-81
2021/11/19 09:08:29;;;;;;;0.10;0.10;;;;;;;9.16;61.00;99817.75;4916042;29;20032;-83
2021/11/19 09:10:57;;;;;;;0.00;0.00;;;;;;;9.21;60.29;99811.69;4916249;29;20039;-83
2021/11/19 09:13:23;;;;;;;0.00;0.00;;;;;;;9.22;60.11;99810.63;4915860;29;20526;-75
2021/11/19 09:15:50;;;;;;;0.20;0.20;;;;;;;9.22;59.64;99800.75;4919444;29;20395;-75
2021/11/19 09:18:36;;;;;;;0.08;0.08;;;;;;;9.29;59.75;99800.59;4950563;29;20036;-75
2021/11/19 09:21:27;;;;;;;0.47;0.47;;;;;;;9.24;59.48;99781.81;4934598;29;20150;-77
2021/11/19 09:24:18;;;;;;;0.00;0.00;;;;;;;9.34;59.53;99792.63;4932967;29;20063;-78
2021/11/19 09:27:00;;;;;;;0.00;0.00;;;;;;;9.38;59.44;99793.72;4922680;29;20064;-78
2021/11/19 09:29:36;;;;;;;0.00;0.00;;;;;;;9.37;59.74;99780.63;4915551;29;20028;-75
2021/11/19 09:32:03;;;;;;;0.00;0.00;;;;;;;9.41;59.67;99784.41;4917028;29;20032;-75
2021/11/19 09:34:30;;;;;;;0.15;0.15;;;;;;;9.42;59.77;99778.03;4915538;29;20672;-75
2021/11/19 09:36:56;;;;;;;0.00;0.00;;;;;;;9.45;59.29;99775.66;4931370;29;20047;-74
2021/11/19 09:39:26;;;;;;;0.43;0.43;;;;;;;9.44;59.36;99770.59;4916484;29;20036;-74
2021/11/19 09:41:58;;;;;;;0.00;0.00;;;;;;;9.47;59.18;99774.59;4916855;29;20035;-74
2021/11/19 09:44:41;;;;;;;0.38;0.38;;;;;;;9.39;59.44;99754.50;4916558;29;20104;-74
2021/11/19 09:47:43;;;;;;;0.30;0.30;;;;;;;9.47;58.83;99764.72;4916254;29;20032;-74
2021/11/19 09:51:05;;;;;;;0.00;0.00;;;;;;;9.49;59.05;99759.94;4916360;29;20028;-74
2021/11/19 09:54:15;;;;;;;0.20;0.20;;;;;;;9.49;58.90;99754.59;4915005;29;20040;-74
2021/11/19 09:57:11;;;;;;;0.77;0.77;;;;;;;9.43;59.01;99735.06;4931102;29;20500;-74
2021/11/19 10:00:10;;;;;;;0.00;0.00;;;;;;;9.45;58.36;99738.28;4931042;29;20036;-73
2021/11/19 10:03:13;;;;;;;0.00;0.00;;;;;;;9.49;57.85;99727.91;4930948;29;20028;-72
2021/11/19 10:06:04;;;;;;;0.82;0.82;;;;;;;9.47;57.94;99732.69;4930867;29;20562;-74
2021/11/19 10:08:57;;;;;;;0.17;0.17;;;;;;;9.46;58.54;99731.09;4909248;29;20040;-73
2021/11/19 10:11:42;;;;;;;0.00;0.00;;;;;;;9.46;57.97;99733.78;4914538;29;20403;-75
2021/11/19 10:14:16;;;;;;;0.20;0.20;;;;;;;9.44;58.36;99733.19;4930643;29;20072;-74
2021/11/19 10:16:50;;;;;;;0.00;0.00;;;;;;;9.38;58.27;99715.53;4930786;29;20028;-74
2021/11/19 10:19:33;;;;;;;0.20;0.20;;;;;;;9.34;58.61;99709.88;4916019;29;20115;-73
2021/11/19 10:22:11;;;;;;;0.20;0.20;;;;;;;9.48;58.85;99728.16;4930490;29;20071;-73
2021/11/19 10:24:39;;;;;;;0.00;0.00;;;;;;;9.50;58.33;99720.72;4930371;29;20024;-74
2021/11/19 10:27:21;;;;;;;0.00;0.00;;;;;;;9.51;58.16;99712.44;4930550;29;20295;-73
2021/11/19 10:29:58;;;;;;;0.00;0.00;;;;;;;9.56;58.61;99714.38;4916219;29;20051;-73
2021/11/19 10:32:27;;;;;;;0.17;0.17;;;;;;;9.55;58.89;99710.09;4914759;29;20020;-73
2021/11/19 10:35:05;;;;;;;0.00;0.00;;;;;;;9.57;58.58;99697.25;4914467;29;20554;-74
2021/11/19 10:37:54;;;;;;;0.00;0.00;;;;;;;9.55;58.40;99681.50;4923371;29;20454;-74
2021/11/19 10:40:38;;;;;;;0.10;0.10;;;;;;;9.56;58.10;99672.44;4917445;29;20494;-73
2021/11/19 10:43:24;;;;;;;0.10;0.10;;;;;;;9.66;57.83;99669.06;4934677;29;20058;-73
2021/11/19 10:46:11;;;;;;;0.15;0.15;;;;;;;9.60;58.13;99657.50;4917432;29;20094;-74
2021/11/19 10:49:15;;;;;;;0.45;0.30;;;;;;;9.78;57.93;99674.22;4917241;29;20043;-73
2021/11/19 10:52:01;;;;;;;0.30;0.30;;;;;;;9.81;56.98;99670.25;4934414;29;20051;-73
2021/11/19 10:54:45;;;;;;;0.10;0.10;;;;;;;9.84;57.32;99667.88;4917155;29;20031;-73
2021/11/19 10:57:25;;;;;;;0.00;0.00;;;;;;;9.88;56.70;99668.16;4934348;29;20090;-74
2021/11/19 11:00:09;;;;;;;0.20;0.20;;;;;;;9.90;56.91;99660.72;4934635;29;20032;-74
2021/11/19 11:02:47;;;;;;;0.38;0.38;;;;;;;9.92;56.41;99663.91;4932730;29;20035;-73
2021/11/19 11:05:21;;;;;;;0.00;0.00;;;;;;;9.86;56.79;99643.56;4934237;29;20055;-74
2021/11/19 11:08:05;;;;;;;0.55;0.55;;;;;;;9.93;56.25;99652.94;4932939;29;20027;-74
2021/11/19 11:10:38;;;;;;;0.17;0.17;;;;;;;9.87;56.40;99632.63;4916768;29;20031;-74
2021/11/19 11:13:22;;;;;;;0.10;0.10;;;;;;;9.98;55.92;99641.50;4932748;29;20039;-73
2021/11/19 11:15:57;;;;;;;0.00;0.00;;;;;;;10.00;56.58;99635.94;4917066;29;20035;-73
2021/11/19 11:18:27;;;;;;;0.22;0.22;;;;;;;10.03;56.51;99632.72;4933698;29;20028;-74
2021/11/19 11:20:52;;;;;;;0.00;0.00;;;;;;;10.06;55.48;99635.69;4932680;29;20111;-74
2021/11/19 11:23:30;;;;;;;0.00;0.00;;;;;;;10.10;54.73;99633.31;4916676;29;20031;-74
2021/11/19 11:26:20;;;;;;;0.55;0.55;;;;;;;10.09;54.48;99627.16;4916847;29;20024;-74
2021/11/19 11:28:48;;;;;;;0.00;0.00;;;;;;;10.10;54.55;99620.72;4917093;29;20131;-73
2021/11/19 11:31:41;;;;;;;0.08;0.08;;;;;;;10.16;54.69;99620.78;4935736;29;20039;-73
2021/11/19 11:34:15;;;;;;;0.08;0.08;;;;;;;10.19;54.96;99605.03;4922395;29;20431;-73
2021/11/19 11:37:18;;;;;;;0.00;0.00;;;;;;;10.23;54.91;99608.00;4934861;29;20083;-73
2021/11/19 11:40:09;;;;;;;0.00;0.00;;;;;;;10.18;53.14;99598.06;4953058;29;20035;-73
2021/11/19 11:42:40;;;;;;;0.13;0.13;;;;;;;10.24;53.04;99605.06;4952323;28;20031;-73
2021/11/19 11:45:47;;;;;;;0.10;0.10;;;;;;;10.27;53.27;99601.06;4936328;29;20130;-73
2021/11/19 11:48:17;;;;;;;0.00;0.00;;;;;;;10.28;52.89;99596.50;4878713;29;20187;-73
2021/11/19 11:50:52;;;;;;;0.00;0.00;;;;;;;10.21;53.27;99572.69;4894058;29;20166;-74
2021/11/19 11:53:25;;;;;;;0.20;0.20;;;;;;;10.34;53.44;99585.59;4910762;29;20040;-75
2021/11/19 11:56:16;;;;;;;0.77;0.60;;;;;;;10.36;53.27;99583.50;4956561;29;20042;-72
2021/11/19 11:59:03;;;;;;;0.00;0.00;;;;;;;10.41;52.74;99580.00;4954816;29;20481;-73
2021/11/19 12:01:43;;;;;;;0.10;0.10;;;;;;;10.45;53.61;99580.28;4936547;29;20035;-72